sensor_id;sensor_type;location;lat;lon;timestamp;temperature;humidity
14122;DHT22;7139;48.114;11.442;2022-08-21T00:00:46;17.10;99.90
14122;DHT22;7139;48.114;11.442;2022-08-21T00:03:14;17.10;99.90
14122;DHT22;7139;48.114;11.442;2022-08-21T00:05:45;17.10;99.90
14122;DHT22;7139;48.114;11.442;2022-08-21T00:08:12;17.00;99.90
14122;DHT22;7139;48.114;11.442;2022-08-21T00:10:40;17.00;99.90
14122;DHT22;7139;48.114;11.442;2022-08-21T00:13:08;17.00;99.90
14122;DHT22;7139;48.114;11.442;2022-08-21T00:15:36;17.00;99.90
14122;DHT22;7139;48.114;11.442;2022-08-21T00:18:05;17.00;99.90
14122;DHT22;7139;48.114;11.442;2022-08-21T00:20:33;17.00;99.90
14122;DHT22;7139;48.114;11.442;2022-08-21T00:23:02;16.90;99.90
14122;DHT22;7139;48.114;11.442;2022-08-21T00:25:29;16.90;99.90
14122;DHT22;7139;48.114;11.442;2022-08-21T00:27:56;16.80;99.90
14122;DHT22;7139;48.114;11.442;2022-08-21T00:30:24;16.70;99.90
14122;DHT22;7139;48.114;11.442;2022-08-21T00:32:53;16.80;99.90
14122;DHT22;7139;48.114;11.442;2022-08-21T00:35:22;16.80;99.90
14122;DHT22;7139;48.114;11.442;2022-08-21T00:37:49;16.70;99.90
14122;DHT22;7139;48.114;11.442;2022-08-21T00:40:21;16.80;99.90
14122;DHT22;7139;48.114;11.442;2022-08-21T00:42:49;16.80;99.90
14122;DHT22;7139;48.114;11.442;2022-08-21T00:45:16;16.80;99.90
14122;DHT22;7139;48.114;11.442;2022-08-21T00:47:43;16.70;99.90
14122;DHT22;7139;48.114;11.442;2022-08-21T00:50:10;16.70;99.90
14122;DHT22;7139;48.114;11.442;2022-08-21T00:52:38;16.70;99.90
14122;DHT22;7139;48.114;11.442;2022-08-21T00:55:08;16.70;99.90
14122;DHT22;7139;48.114;11.442;2022-08-21T00:57:40;16.60;99.90
14122;DHT22;7139;48.114;11.442;2022-08-21T01:00:12;16.60;99.90
14122;DHT22;7139;48.114;11.442;2022-08-21T01:02:40;16.60;99.90
14122;DHT22;7139;48.114;11.442;2022-08-21T01:05:08;16.60;99.90
14122;DHT22;7139;48.114;11.442;2022-08-21T01:07:35;16.60;99.90
14122;DHT22;7139;48.114;11.442;2022-08-21T01:10:04;16.50;99.90
14122;DHT22;7139;48.114;11.442;2022-08-21T01:12:32;16.60;99.90
14122;DHT22;7139;48.114;11.442;2022-08-21T01:15:04;16.50;99.90
14122;DHT22;7139;48.114;11.442;2022-08-21T01:17:32;16.50;99.90
14122;DHT22;7139;48.114;11.442;2022-08-21T01:19:59;16.50;99.90
14122;DHT22;7139;48.114;11.442;2022-08-21T01:22:27;16.50;99.90
14122;DHT22;7139;48.114;11.442;2022-08-21T01:24:54;16.40;99.90
14122;DHT22;7139;48.114;11.442;2022-08-21T01:27:21;16.40;99.90
14122;DHT22;7139;48.114;11.442;2022-08-21T01:29:53;16.40;99.90
14122;DHT22;7139;48.114;11.442;2022-08-21T01:32:21;16.40;99.90
14122;DHT22;7139;48.114;11.442;2022-08-21T01:34:50;16.40;99.90
14122;DHT22;7139;48.114;11.442;2022-08-21T01:37:19;16.30;99.90
14122;DHT22;7139;48.114;11.442;2022-08-21T01:39:47;16.30;99.90
14122;DHT22;7139;48.114;11.442;2022-08-21T01:42:14;16.30;99.90
14122;DHT22;7139;48.114;11.442;2022-08-21T01:44:42;16.20;99.90
14122;DHT22;7139;48.114;11.442;2022-08-21T01:47:11;16.20;99.90
14122;DHT22;7139;48.114;11.442;2022-08-21T01:49:39;16.20;99.90
14122;DHT22;7139;48.114;11.442;2022-08-21T01:52:06;16.20;99.90
14122;DHT22;7139;48.114;11.442;2022-08-21T01:54:33;16.20;99.90
14122;DHT22;7139;48.114;11.442;2022-08-21T01:57:01;16.20;99.90
14122;DHT22;7139;48.114;11.442;2022-08-21T01:59:29;16.10;99.90
14122;DHT22;7139;48.114;11.442;2022-08-21T02:01:56;16.20;99.90
14122;DHT22;7139;48.114;11.442;2022-08-21T02:04:23;16.20;99.90
14122;DHT22;7139;48.114;11.442;2022-08-21T02:06:50;16.10;99.90
14122;DHT22;7139;48.114;11.442;2022-08-21T02:09:18;16.10;99.90
14122;DHT22;7139;48.114;11.442;2022-08-21T02:11:44;16.10;99.90
14122;DHT22;7139;48.114;11.442;2022-08-21T02:14:14;16.00;99.90
14122;DHT22;7139;48.114;11.442;2022-08-21T02:16:43;16.00;99.90
14122;DHT22;7139;48.114;11.442;2022-08-21T02:19:10;16.00;99.90
14122;DHT22;7139;48.114;11.442;2022-08-21T02:21:37;16.00;99.90
14122;DHT22;7139;48.114;11.442;2022-08-21T02:24:05;15.90;99.90
14122;DHT22;7139;48.114;11.442;2022-08-21T02:26:32;15.90;99.90
14122;DHT22;7139;48.114;11.442;2022-08-21T02:29:00;16.00;99.90
14122;DHT22;7139;48.114;11.442;2022-08-21T02:31:28;16.00;99.90
14122;DHT22;7139;48.114;11.442;2022-08-21T02:33:55;15.90;99.90
14122;DHT22;7139;48.114;11.442;2022-08-21T02:36:22;16.00;99.90
14122;DHT22;7139;48.114;11.442;2022-08-21T02:38:49;15.90;99.90
14122;DHT22;7139;48.114;11.442;2022-08-21T02:41:17;15.90;99.90
14122;DHT22;7139;48.114;11.442;2022-08-21T02:43:45;15.90;99.90
14122;DHT22;7139;48.114;11.442;2022-08-21T02:46:15;15.90;99.90
14122;DHT22;7139;48.114;11.442;2022-08-21T02:48:44;15.80;99.90
14122;DHT22;7139;48.114;11.442;2022-08-21T02:51:14;15.80;99.90
14122;DHT22;7139;48.114;11.442;2022-08-21T02:53:43;15.90;99.90
14122;DHT22;7139;48.114;11.442;2022-08-21T02:56:14;15.80;99.90
14122;DHT22;7139;48.114;11.442;2022-08-21T02:58:44;15.80;99.90
14122;DHT22;7139;48.114;11.442;2022-08-21T03:01:11;15.80;99.90
14122;DHT22;7139;48.114;11.442;2022-08-21T03:03:40;15.80;99.90
14122;DHT22;7139;48.114;11.442;2022-08-21T03:06:10;15.80;99.90
14122;DHT22;7139;48.114;11.442;2022-08-21T03:08:37;15.70;99.90
14122;DHT22;7139;48.114;11.442;2022-08-21T03:11:05;15.70;99.90
14122;DHT22;7139;48.114;11.442;2022-08-21T03:13:32;15.70;99.90
14122;DHT22;7139;48.114;11.442;2022-08-21T03:15:59;15.70;99.90
14122;DHT22;7139;48.114;11.442;2022-08-21T03:18:26;15.60;99.90
14122;DHT22;7139;48.114;11.442;2022-08-21T03:20:53;15.60;99.90
14122;DHT22;7139;48.114;11.442;2022-08-21T03:23:21;15.60;99.90
14122;DHT22;7139;48.114;11.442;2022-08-21T03:25:48;15.50;99.90
14122;DHT22;7139;48.114;11.442;2022-08-21T03:28:18;15.60;99.90
14122;DHT22;7139;48.114;11.442;2022-08-21T03:30:47;15.60;99.90
14122;DHT22;7139;48.114;11.442;2022-08-21T03:33:14;15.60;99.90
14122;DHT22;7139;48.114;11.442;2022-08-21T03:35:42;15.60;99.90
14122;DHT22;7139;48.114;11.442;2022-08-21T03:38:10;15.60;99.90
14122;DHT22;7139;48.114;11.442;2022-08-21T03:40:39;15.50;99.90
14122;DHT22;7139;48.114;11.442;2022-08-21T03:43:06;15.50;99.90
14122;DHT22;7139;48.114;11.442;2022-08-21T03:45:34;15.50;99.90
14122;DHT22;7139;48.114;11.442;2022-08-21T03:48:03;15.50;99.90
14122;DHT22;7139;48.114;11.442;2022-08-21T03:50:31;15.50;99.90
14122;DHT22;7139;48.114;11.442;2022-08-21T03:52:59;15.50;99.90
14122;DHT22;7139;48.114;11.442;2022-08-21T03:55:26;15.50;99.90
14122;DHT22;7139;48.114;11.442;2022-08-21T03:57:55;15.50;99.90
14122;DHT22;7139;48.114;11.442;2022-08-21T04:00:22;15.50;99.90
14122;DHT22;7139;48.114;11.442;2022-08-21T04:02:49;15.40;99.90
14122;DHT22;7139;48.114;11.442;2022-08-21T04:05:17;15.40;99.90
14122;DHT22;7139;48.114;11.442;2022-08-21T04:07:53;15.40;99.90
14122;DHT22;7139;48.114;11.442;2022-08-21T04:10:20;15.40;99.90
14122;DHT22;7139;48.114;11.442;2022-08-21T04:12:47;15.40;99.90
14122;DHT22;7139;48.114;11.442;2022-08-21T04:15:15;15.40;99.90
14122;DHT22;7139;48.114;11.442;2022-08-21T04:17:42;15.30;99.90
14122;DHT22;7139;48.114;11.442;2022-08-21T04:20:09;15.30;99.90
14122;DHT22;7139;48.114;11.442;2022-08-21T04:22:36;15.30;99.90
14122;DHT22;7139;48.114;11.442;2022-08-21T04:25:03;15.30;99.90
14122;DHT22;7139;48.114;11.442;2022-08-21T04:27:30;15.20;99.90
14122;DHT22;7139;48.114;11.442;2022-08-21T04:29:57;15.20;99.90
14122;DHT22;7139;48.114;11.442;2022-08-21T04:32:27;15.20;99.90
14122;DHT22;7139;48.114;11.442;2022-08-21T04:34:58;15.10;99.90
14122;DHT22;7139;48.114;11.442;2022-08-21T04:37:26;15.10;99.90
14122;DHT22;7139;48.114;11.442;2022-08-21T04:39:54;15.20;99.90
14122;DHT22;7139;48.114;11.442;2022-08-21T04:42:22;15.10;99.90
14122;DHT22;7139;48.114;11.442;2022-08-21T04:44:49;15.10;99.90
14122;DHT22;7139;48.114;11.442;2022-08-21T04:47:16;15.10;99.90
14122;DHT22;7139;48.114;11.442;2022-08-21T04:49:44;15.20;99.90
14122;DHT22;7139;48.114;11.442;2022-08-21T04:52:14;15.20;99.90
14122;DHT22;7139;48.114;11.442;2022-08-21T04:54:42;15.20;99.90
14122;DHT22;7139;48.114;11.442;2022-08-21T04:57:10;15.20;99.90
14122;DHT22;7139;48.114;11.442;2022-08-21T04:59:41;15.20;99.90
14122;DHT22;7139;48.114;11.442;2022-08-21T05:02:09;15.20;99.90
14122;DHT22;7139;48.114;11.442;2022-08-21T05:04:41;15.20;99.90
14122;DHT22;7139;48.114;11.442;2022-08-21T05:07:14;15.20;99.90
14122;DHT22;7139;48.114;11.442;2022-08-21T05:09:42;15.20;99.90
14122;DHT22;7139;48.114;11.442;2022-08-21T05:12:09;15.20;99.90
14122;DHT22;7139;48.114;11.442;2022-08-21T05:14:36;15.20;99.90
14122;DHT22;7139;48.114;11.442;2022-08-21T05:17:03;15.20;99.90
14122;DHT22;7139;48.114;11.442;2022-08-21T05:19:31;15.20;99.90
14122;DHT22;7139;48.114;11.442;2022-08-21T05:21:57;15.20;99.90
14122;DHT22;7139;48.114;11.442;2022-08-21T05:24:26;15.20;99.90
14122;DHT22;7139;48.114;11.442;2022-08-21T05:26:52;15.20;99.90
14122;DHT22;7139;48.114;11.442;2022-08-21T05:29:19;15.20;99.90
14122;DHT22;7139;48.114;11.442;2022-08-21T05:31:46;15.20;99.90
14122;DHT22;7139;48.114;11.442;2022-08-21T05:34:14;15.20;99.90
14122;DHT22;7139;48.114;11.442;2022-08-21T05:36:41;15.30;99.90
14122;DHT22;7139;48.114;11.442;2022-08-21T05:39:08;15.30;99.90
14122;DHT22;7139;48.114;11.442;2022-08-21T05:41:36;15.30;99.90
14122;DHT22;7139;48.114;11.442;2022-08-21T05:44:03;15.30;99.90
14122;DHT22;7139;48.114;11.442;2022-08-21T05:46:30;15.30;99.90
14122;DHT22;7139;48.114;11.442;2022-08-21T05:48:57;15.30;99.90
14122;DHT22;7139;48.114;11.442;2022-08-21T05:51:24;15.40;99.90
14122;DHT22;7139;48.114;11.442;2022-08-21T05:53:50;15.40;99.90
14122;DHT22;7139;48.114;11.442;2022-08-21T05:56:17;15.40;99.90
14122;DHT22;7139;48.114;11.442;2022-08-21T05:58:45;15.50;99.90
14122;DHT22;7139;48.114;11.442;2022-08-21T06:01:12;15.50;99.90
14122;DHT22;7139;48.114;11.442;2022-08-21T06:03:41;15.50;99.90
14122;DHT22;7139;48.114;11.442;2022-08-21T06:06:08;15.60;99.90
14122;DHT22;7139;48.114;11.442;2022-08-21T06:08:35;15.60;99.90
14122;DHT22;7139;48.114;11.442;2022-08-21T06:11:03;15.60;99.90
14122;DHT22;7139;48.114;11.442;2022-08-21T06:13:31;15.70;99.90
14122;DHT22;7139;48.114;11.442;2022-08-21T06:16:04;15.70;99.90
14122;DHT22;7139;48.114;11.442;2022-08-21T06:18:31;15.80;99.90
14122;DHT22;7139;48.114;11.442;2022-08-21T06:20:58;15.80;99.90
14122;DHT22;7139;48.114;11.442;2022-08-21T06:23:25;15.90;99.90
14122;DHT22;7139;48.114;11.442;2022-08-21T06:25:52;16.00;99.90
14122;DHT22;7139;48.114;11.442;2022-08-21T06:28:19;16.00;99.90
14122;DHT22;7139;48.114;11.442;2022-08-21T06:30:46;16.00;99.90
14122;DHT22;7139;48.114;11.442;2022-08-21T06:33:14;16.10;99.90
14122;DHT22;7139;48.114;11.442;2022-08-21T06:35:41;16.10;99.90
14122;DHT22;7139;48.114;11.442;2022-08-21T06:38:08;16.20;99.90
14122;DHT22;7139;48.114;11.442;2022-08-21T06:40:35;16.20;99.90
14122;DHT22;7139;48.114;11.442;2022-08-21T06:43:06;16.20;99.90
14122;DHT22;7139;48.114;11.442;2022-08-21T06:45:33;16.30;99.90
14122;DHT22;7139;48.114;11.442;2022-08-21T06:48:00;16.40;99.90
14122;DHT22;7139;48.114;11.442;2022-08-21T06:50:28;16.40;99.90
14122;DHT22;7139;48.114;11.442;2022-08-21T06:52:59;16.50;99.90
14122;DHT22;7139;48.114;11.442;2022-08-21T06:55:26;16.60;99.90
14122;DHT22;7139;48.114;11.442;2022-08-21T06:57:53;16.60;99.90
14122;DHT22;7139;48.114;11.442;2022-08-21T07:00:20;16.70;99.90
14122;DHT22;7139;48.114;11.442;2022-08-21T07:02:47;16.70;99.90
14122;DHT22;7139;48.114;11.442;2022-08-21T07:05:14;16.80;99.90
14122;DHT22;7139;48.114;11.442;2022-08-21T07:07:42;16.80;99.90
14122;DHT22;7139;48.114;11.442;2022-08-21T07:10:09;16.80;99.90
14122;DHT22;7139;48.114;11.442;2022-08-21T07:12:36;16.90;99.90
14122;DHT22;7139;48.114;11.442;2022-08-21T07:15:04;16.90;99.90
14122;DHT22;7139;48.114;11.442;2022-08-21T07:17:31;17.00;99.90
14122;DHT22;7139;48.114;11.442;2022-08-21T07:19:58;17.10;99.90
14122;DHT22;7139;48.114;11.442;2022-08-21T07:22:25;17.10;99.90
14122;DHT22;7139;48.114;11.442;2022-08-21T07:24:54;17.20;99.90
14122;DHT22;7139;48.114;11.442;2022-08-21T07:27:21;17.30;99.90
14122;DHT22;7139;48.114;11.442;2022-08-21T07:29:48;17.40;99.90
14122;DHT22;7139;48.114;11.442;2022-08-21T07:32:15;17.50;99.90
14122;DHT22;7139;48.114;11.442;2022-08-21T07:34:42;17.50;99.90
14122;DHT22;7139;48.114;11.442;2022-08-21T07:37:08;17.60;99.90
14122;DHT22;7139;48.114;11.442;2022-08-21T07:39:35;17.70;99.90
14122;DHT22;7139;48.114;11.442;2022-08-21T07:42:04;17.70;99.90
14122;DHT22;7139;48.114;11.442;2022-08-21T07:44:31;17.90;99.90
14122;DHT22;7139;48.114;11.442;2022-08-21T07:46:59;18.00;99.90
14122;DHT22;7139;48.114;11.442;2022-08-21T07:49:26;18.20;99.90
14122;DHT22;7139;48.114;11.442;2022-08-21T07:51:53;18.30;99.90
14122;DHT22;7139;48.114;11.442;2022-08-21T07:54:21;18.40;99.90
14122;DHT22;7139;48.114;11.442;2022-08-21T07:56:48;18.50;99.90
14122;DHT22;7139;48.114;11.442;2022-08-21T07:59:16;18.70;99.90
14122;DHT22;7139;48.114;11.442;2022-08-21T08:01:43;18.90;99.90
14122;DHT22;7139;48.114;11.442;2022-08-21T08:04:10;19.00;99.90
14122;DHT22;7139;48.114;11.442;2022-08-21T08:06:37;19.20;99.90
14122;DHT22;7139;48.114;11.442;2022-08-21T08:09:03;19.20;99.90
14122;DHT22;7139;48.114;11.442;2022-08-21T08:11:30;19.30;99.90
14122;DHT22;7139;48.114;11.442;2022-08-21T08:13:57;19.40;99.90
14122;DHT22;7139;48.114;11.442;2022-08-21T08:16:26;19.60;99.90
14122;DHT22;7139;48.114;11.442;2022-08-21T08:18:53;19.70;99.90
14122;DHT22;7139;48.114;11.442;2022-08-21T08:21:21;19.90;99.90
14122;DHT22;7139;48.114;11.442;2022-08-21T08:23:48;20.10;99.90
14122;DHT22;7139;48.114;11.442;2022-08-21T08:26:15;20.20;99.90
14122;DHT22;7139;48.114;11.442;2022-08-21T08:28:42;20.30;99.90
14122;DHT22;7139;48.114;11.442;2022-08-21T08:31:09;20.50;99.90
14122;DHT22;7139;48.114;11.442;2022-08-21T08:33:37;20.60;99.90
14122;DHT22;7139;48.114;11.442;2022-08-21T08:36:05;20.60;99.90
14122;DHT22;7139;48.114;11.442;2022-08-21T08:38:32;20.70;99.90
14122;DHT22;7139;48.114;11.442;2022-08-21T08:41:02;20.70;99.90
14122;DHT22;7139;48.114;11.442;2022-08-21T08:43:33;20.90;99.90
14122;DHT22;7139;48.114;11.442;2022-08-21T08:46:04;21.00;99.90
14122;DHT22;7139;48.114;11.442;2022-08-21T08:48:43;21.10;99.90
14122;DHT22;7139;48.114;11.442;2022-08-21T08:51:16;21.30;99.90
14122;DHT22;7139;48.114;11.442;2022-08-21T08:53:49;21.40;99.90
14122;DHT22;7139;48.114;11.442;2022-08-21T08:56:28;21.50;99.90
14122;DHT22;7139;48.114;11.442;2022-08-21T08:58:59;21.60;99.90
14122;DHT22;7139;48.114;11.442;2022-08-21T09:01:27;21.70;99.90
14122;DHT22;7139;48.114;11.442;2022-08-21T09:03:56;21.90;99.90
14122;DHT22;7139;48.114;11.442;2022-08-21T09:06:36;21.90;99.90
14122;DHT22;7139;48.114;11.442;2022-08-21T09:09:17;22.10;99.90
14122;DHT22;7139;48.114;11.442;2022-08-21T09:11:52;22.30;99.90
14122;DHT22;7139;48.114;11.442;2022-08-21T09:14:28;22.30;99.90
14122;DHT22;7139;48.114;11.442;2022-08-21T09:17:04;22.50;99.90
14122;DHT22;7139;48.114;11.442;2022-08-21T09:19:49;22.60;99.90
14122;DHT22;7139;48.114;11.442;2022-08-21T09:22:27;22.80;99.90
14122;DHT22;7139;48.114;11.442;2022-08-21T09:25:02;22.90;99.90
14122;DHT22;7139;48.114;11.442;2022-08-21T09:27:33;22.80;99.60
14122;DHT22;7139;48.114;11.442;2022-08-21T09:30:01;22.70;99.90
14122;DHT22;7139;48.114;11.442;2022-08-21T09:32:30;22.90;99.90
14122;DHT22;7139;48.114;11.442;2022-08-21T09:35:05;23.10;99.90
14122;DHT22;7139;48.114;11.442;2022-08-21T09:37:45;23.30;99.80
14122;DHT22;7139;48.114;11.442;2022-08-21T09:40:20;23.40;99.90
14122;DHT22;7139;48.114;11.442;2022-08-21T09:42:55;23.60;99.90
14122;DHT22;7139;48.114;11.442;2022-08-21T09:45:22;23.80;99.90
14122;DHT22;7139;48.114;11.442;2022-08-21T09:47:48;23.70;99.70
14122;DHT22;7139;48.114;11.442;2022-08-21T09:50:21;23.40;99.20
14122;DHT22;7139;48.114;11.442;2022-08-21T09:52:51;23.10;99.70
14122;DHT22;7139;48.114;11.442;2022-08-21T09:55:25;22.70;99.90
14122;DHT22;7139;48.114;11.442;2022-08-21T09:58:14;22.40;99.90
14122;DHT22;7139;48.114;11.442;2022-08-21T10:00:42;22.30;99.90
14122;DHT22;7139;48.114;11.442;2022-08-21T10:03:15;22.30;99.90
14122;DHT22;7139;48.114;11.442;2022-08-21T10:05:54;22.50;99.90
14122;DHT22;7139;48.114;11.442;2022-08-21T10:08:23;22.90;99.90
14122;DHT22;7139;48.114;11.442;2022-08-21T10:10:54;23.20;99.90
14122;DHT22;7139;48.114;11.442;2022-08-21T10:13:25;23.30;99.00
14122;DHT22;7139;48.114;11.442;2022-08-21T10:16:03;23.10;98.90
14122;DHT22;7139;48.114;11.442;2022-08-21T10:18:38;22.90;99.20
14122;DHT22;7139;48.114;11.442;2022-08-21T10:21:13;22.70;99.60
14122;DHT22;7139;48.114;11.442;2022-08-21T10:23:54;22.70;99.90
14122;DHT22;7139;48.114;11.442;2022-08-21T10:26:31;22.50;99.90
14122;DHT22;7139;48.114;11.442;2022-08-21T10:29:07;22.30;99.90
14122;DHT22;7139;48.114;11.442;2022-08-21T10:31:41;22.20;99.90
14122;DHT22;7139;48.114;11.442;2022-08-21T10:34:24;22.00;99.90
14122;DHT22;7139;48.114;11.442;2022-08-21T10:37:06;21.90;99.90
14122;DHT22;7139;48.114;11.442;2022-08-21T10:39:43;21.90;99.90
14122;DHT22;7139;48.114;11.442;2022-08-21T10:42:29;22.00;99.90
14122;DHT22;7139;48.114;11.442;2022-08-21T10:45:07;22.40;99.90
14122;DHT22;7139;48.114;11.442;2022-08-21T10:47:41;22.80;99.90
14122;DHT22;7139;48.114;11.442;2022-08-21T10:50:19;23.10;99.90
14122;DHT22;7139;48.114;11.442;2022-08-21T10:53:08;23.50;99.90
14122;DHT22;7139;48.114;11.442;2022-08-21T10:55:41;23.80;98.60
14122;DHT22;7139;48.114;11.442;2022-08-21T10:58:12;24.00;96.90
14122;DHT22;7139;48.114;11.442;2022-08-21T11:00:45;24.10;96.90
14122;DHT22;7139;48.114;11.442;2022-08-21T11:03:15;23.80;96.60
14122;DHT22;7139;48.114;11.442;2022-08-21T11:05:45;23.60;97.80
14122;DHT22;7139;48.114;11.442;2022-08-21T11:08:17;23.40;98.00
14122;DHT22;7139;48.114;11.442;2022-08-21T11:10:49;23.00;97.50
14122;DHT22;7139;48.114;11.442;2022-08-21T11:13:19;22.70;96.90
14122;DHT22;7139;48.114;11.442;2022-08-21T11:15:53;22.60;98.10
14122;DHT22;7139;48.114;11.442;2022-08-21T11:18:24;22.60;98.50
14122;DHT22;7139;48.114;11.442;2022-08-21T11:21:01;22.50;97.30
14122;DHT22;7139;48.114;11.442;2022-08-21T11:23:38;22.70;96.70
14122;DHT22;7139;48.114;11.442;2022-08-21T11:26:10;23.00;96.80
14122;DHT22;7139;48.114;11.442;2022-08-21T11:28:43;23.40;96.90
14122;DHT22;7139;48.114;11.442;2022-08-21T11:31:22;23.80;96.30
14122;DHT22;7139;48.114;11.442;2022-08-21T11:34:01;24.30;94.30
14122;DHT22;7139;48.114;11.442;2022-08-21T11:36:35;24.60;93.30
14122;DHT22;7139;48.114;11.442;2022-08-21T11:39:15;24.70;93.00
14122;DHT22;7139;48.114;11.442;2022-08-21T11:41:49;24.90;93.50
14122;DHT22;7139;48.114;11.442;2022-08-21T11:44:32;25.20;92.20
14122;DHT22;7139;48.114;11.442;2022-08-21T11:47:05;25.60;91.90
14122;DHT22;7139;48.114;11.442;2022-08-21T11:49:50;25.50;92.10
14122;DHT22;7139;48.114;11.442;2022-08-21T11:52:22;25.70;92.00
14122;DHT22;7139;48.114;11.442;2022-08-21T11:54:57;25.20;91.40
14122;DHT22;7139;48.114;11.442;2022-08-21T11:57:29;24.70;90.60
14122;DHT22;7139;48.114;11.442;2022-08-21T12:00:00;24.40;91.20
14122;DHT22;7139;48.114;11.442;2022-08-21T12:02:33;24.40;91.60
14122;DHT22;7139;48.114;11.442;2022-08-21T12:05:04;24.70;90.60
14122;DHT22;7139;48.114;11.442;2022-08-21T12:07:35;24.90;85.30
14122;DHT22;7139;48.114;11.442;2022-08-21T12:10:06;25.10;82.90
14122;DHT22;7139;48.114;11.442;2022-08-21T12:12:35;25.30;82.90
14122;DHT22;7139;48.114;11.442;2022-08-21T12:15:25;25.60;84.20
14122;DHT22;7139;48.114;11.442;2022-08-21T12:17:56;25.80;86.10
14122;DHT22;7139;48.114;11.442;2022-08-21T12:23:24;26.20;84.90
14122;DHT22;7139;48.114;11.442;2022-08-21T12:26:03;26.30;86.60
14122;DHT22;7139;48.114;11.442;2022-08-21T12:28:30;26.20;85.30
14122;DHT22;7139;48.114;11.442;2022-08-21T12:30:58;26.20;87.70
14122;DHT22;7139;48.114;11.442;2022-08-21T12:33:28;26.30;82.80
14122;DHT22;7139;48.114;11.442;2022-08-21T12:36:03;26.40;79.10
14122;DHT22;7139;48.114;11.442;2022-08-21T12:38:34;26.20;84.40
14122;DHT22;7139;48.114;11.442;2022-08-21T12:41:19;26.20;84.40
14122;DHT22;7139;48.114;11.442;2022-08-21T12:43:51;26.30;85.40
14122;DHT22;7139;48.114;11.442;2022-08-21T12:46:20;26.40;82.20
14122;DHT22;7139;48.114;11.442;2022-08-21T12:48:51;26.50;83.50
14122;DHT22;7139;48.114;11.442;2022-08-21T12:51:23;26.60;82.90
14122;DHT22;7139;48.114;11.442;2022-08-21T12:53:52;26.60;84.20
14122;DHT22;7139;48.114;11.442;2022-08-21T12:56:23;26.40;84.30
14122;DHT22;7139;48.114;11.442;2022-08-21T12:58:51;26.00;82.50
14122;DHT22;7139;48.114;11.442;2022-08-21T13:01:22;25.70;86.80
14122;DHT22;7139;48.114;11.442;2022-08-21T13:03:50;25.50;86.90
14122;DHT22;7139;48.114;11.442;2022-08-21T13:06:20;25.30;89.40
14122;DHT22;7139;48.114;11.442;2022-08-21T13:08:48;25.10;89.20
14122;DHT22;7139;48.114;11.442;2022-08-21T13:11:21;24.90;90.70
14122;DHT22;7139;48.114;11.442;2022-08-21T13:13:49;24.80;90.00
14122;DHT22;7139;48.114;11.442;2022-08-21T13:16:20;24.60;90.50
14122;DHT22;7139;48.114;11.442;2022-08-21T13:18:56;24.40;89.10
14122;DHT22;7139;48.114;11.442;2022-08-21T13:21:28;24.30;89.30
14122;DHT22;7139;48.114;11.442;2022-08-21T13:24:09;24.40;89.10
14122;DHT22;7139;48.114;11.442;2022-08-21T13:26:38;24.60;88.00
14122;DHT22;7139;48.114;11.442;2022-08-21T13:29:07;24.80;87.50
14122;DHT22;7139;48.114;11.442;2022-08-21T13:31:36;24.80;87.60
14122;DHT22;7139;48.114;11.442;2022-08-21T13:34:04;25.00;87.10
14122;DHT22;7139;48.114;11.442;2022-08-21T13:36:35;24.90;86.10
14122;DHT22;7139;48.114;11.442;2022-08-21T13:39:03;24.80;83.20
14122;DHT22;7139;48.114;11.442;2022-08-21T13:41:32;24.70;85.10
14122;DHT22;7139;48.114;11.442;2022-08-21T13:44:04;24.70;83.90
14122;DHT22;7139;48.114;11.442;2022-08-21T13:46:33;24.70;84.80
14122;DHT22;7139;48.114;11.442;2022-08-21T13:49:02;24.60;84.80
14122;DHT22;7139;48.114;11.442;2022-08-21T13:51:29;24.60;85.30
14122;DHT22;7139;48.114;11.442;2022-08-21T13:53:57;24.60;84.70
14122;DHT22;7139;48.114;11.442;2022-08-21T13:56:26;24.60;85.80
14122;DHT22;7139;48.114;11.442;2022-08-21T13:58:55;24.60;86.10
14122;DHT22;7139;48.114;11.442;2022-08-21T14:01:26;24.40;87.30
14122;DHT22;7139;48.114;11.442;2022-08-21T14:03:56;24.40;89.90
14122;DHT22;7139;48.114;11.442;2022-08-21T14:06:27;24.50;89.40
14122;DHT22;7139;48.114;11.442;2022-08-21T14:08:58;24.60;84.20
14122;DHT22;7139;48.114;11.442;2022-08-21T14:11:26;24.40;86.60
14122;DHT22;7139;48.114;11.442;2022-08-21T14:13:59;24.50;88.20
14122;DHT22;7139;48.114;11.442;2022-08-21T14:16:42;24.70;87.80
14122;DHT22;7139;48.114;11.442;2022-08-21T14:19:18;24.90;84.80
14122;DHT22;7139;48.114;11.442;2022-08-21T14:21:45;25.10;86.20
14122;DHT22;7139;48.114;11.442;2022-08-21T14:24:24;25.20;84.90
14122;DHT22;7139;48.114;11.442;2022-08-21T14:26:52;25.40;85.00
14122;DHT22;7139;48.114;11.442;2022-08-21T14:29:21;25.50;83.60
14122;DHT22;7139;48.114;11.442;2022-08-21T14:31:51;25.50;81.50
14122;DHT22;7139;48.114;11.442;2022-08-21T14:34:19;25.50;80.80
14122;DHT22;7139;48.114;11.442;2022-08-21T14:36:48;25.50;82.20
14122;DHT22;7139;48.114;11.442;2022-08-21T14:39:15;25.70;81.60
14122;DHT22;7139;48.114;11.442;2022-08-21T14:41:42;25.70;80.20
14122;DHT22;7139;48.114;11.442;2022-08-21T14:44:11;25.60;82.10
14122;DHT22;7139;48.114;11.442;2022-08-21T14:46:39;25.60;83.00
14122;DHT22;7139;48.114;11.442;2022-08-21T14:49:07;25.40;83.10
14122;DHT22;7139;48.114;11.442;2022-08-21T14:51:34;25.10;81.60
14122;DHT22;7139;48.114;11.442;2022-08-21T14:54:00;25.00;84.80
14122;DHT22;7139;48.114;11.442;2022-08-21T14:56:27;25.10;85.20
14122;DHT22;7139;48.114;11.442;2022-08-21T14:58:56;25.10;83.20
14122;DHT22;7139;48.114;11.442;2022-08-21T15:01:26;25.10;81.00
14122;DHT22;7139;48.114;11.442;2022-08-21T15:03:53;25.20;83.10
14122;DHT22;7139;48.114;11.442;2022-08-21T15:06:21;25.20;83.70
14122;DHT22;7139;48.114;11.442;2022-08-21T15:08:48;25.10;81.30
14122;DHT22;7139;48.114;11.442;2022-08-21T15:11:19;24.90;83.40
14122;DHT22;7139;48.114;11.442;2022-08-21T15:13:47;24.80;83.50
14122;DHT22;7139;48.114;11.442;2022-08-21T15:16:15;24.80;82.90
14122;DHT22;7139;48.114;11.442;2022-08-21T15:18:42;24.90;81.70
14122;DHT22;7139;48.114;11.442;2022-08-21T15:21:09;25.00;82.30
14122;DHT22;7139;48.114;11.442;2022-08-21T15:23:37;25.00;80.70
14122;DHT22;7139;48.114;11.442;2022-08-21T15:26:05;25.10;80.70
14122;DHT22;7139;48.114;11.442;2022-08-21T15:28:33;25.20;81.40
14122;DHT22;7139;48.114;11.442;2022-08-21T15:31:00;25.20;78.60
14122;DHT22;7139;48.114;11.442;2022-08-21T15:33:28;25.20;79.50
14122;DHT22;7139;48.114;11.442;2022-08-21T15:35:56;25.10;79.40
14122;DHT22;7139;48.114;11.442;2022-08-21T15:38:23;25.20;78.50
14122;DHT22;7139;48.114;11.442;2022-08-21T15:40:53;25.10;79.50
14122;DHT22;7139;48.114;11.442;2022-08-21T15:43:23;25.10;79.80
14122;DHT22;7139;48.114;11.442;2022-08-21T15:45:51;25.10;78.00
14122;DHT22;7139;48.114;11.442;2022-08-21T15:48:18;25.10;77.30